Time;durP1;ratioP1;P1;durP2;ratioP2;P2;SDS_P1;SDS_P2;PMS_P1;PMS_P2;Temp;Humidity;BMP_temperature;BMP_pressure;BME280_temperature;BME280_humidity;BME280_pressure;Samples;Min_cycle;Max_cycle;Signal;HPM_P1;HPM_P2
2022/01/23 00:02:02;;;;;;;16.13;5.97;;;5.50;99.90;;;;;;5007025;28;20059;-86
2022/01/23 00:04:28;;;;;;;19.23;8.02;;;5.50;99.90;;;;;;5005536;28;20029;-86
2022/01/23 00:06:54;;;;;;;27.30;10.15;;;5.50;99.90;;;;;;4992936;28;20111;-86
2022/01/23 00:09:19;;;;;;;12.88;5.55;;;5.50;99.90;;;;;;5009064;28;20042;-86
2022/01/23 00:11:53;;;;;;;14.32;5.72;;;5.50;99.90;;;;;;4989531;28;20176;-86
2022/01/23 00:18:04;;;;;;;6.38;2.42;;;5.50;99.90;;;;;;5006281;28;20116;-86
2022/01/23 00:19:59;;;;;;;5.47;2.35;;;5.50;99.90;;;;;;5008443;28;20049;-86
2022/01/23 00:22:35;;;;;;;7.88;2.40;;;5.40;99.90;;;;;;4993704;28;20148;-85
2022/01/23 00:30:31;;;;;;;5.70;1.73;;;5.50;99.90;;;;;;5006363;28;20109;-86
2022/01/23 00:32:59;;;;;;;4.93;1.95;;;5.40;99.90;;;;;;4993185;28;20049;-86
2022/01/23 00:35:26;;;;;;;4.00;1.42;;;5.50;99.90;;;;;;4993303;28;20038;-86
2022/01/23 00:37:53;;;;;;;5.20;1.52;;;5.40;99.90;;;;;;5011743;28;20041;-86
2022/01/23 00:40:20;;;;;;;6.00;1.85;;;5.40;99.90;;;;;;5010546;28;20053;-86
2022/01/23 00:42:46;;;;;;;7.63;2.05;;;5.40;99.90;;;;;;4990024;28;20041;-85
2022/01/23 00:45:28;;;;;;;6.63;1.80;;;5.40;99.90;;;;;;5001545;28;20059;-86
2022/01/23 00:48:00;;;;;;;6.55;1.80;;;5.40;99.90;;;;;;5012561;28;20041;-86
2022/01/23 00:50:27;;;;;;;5.28;1.58;;;5.40;99.90;;;;;;5008249;28;20037;-86
2022/01/23 00:52:53;;;;;;;5.53;1.80;;;5.40;99.90;;;;;;4999702;28;20414;-87
2022/01/23 00:55:18;;;;;;;6.20;1.80;;;5.40;99.90;;;;;;4990896;28;20061;-86
2022/01/23 00:57:44;;;;;;;4.72;1.67;;;5.40;99.90;;;;;;5003716;28;20048;-86
2022/01/23 01:00:12;;;;;;;8.57;1.92;;;5.40;99.90;;;;;;5007296;28;20064;-86
2022/01/23 01:02:38;;;;;;;6.00;1.42;;;5.40;99.90;;;;;;4990163;28;20478;-85
2022/01/23 01:05:04;;;;;;;5.45;1.70;;;5.40;99.90;;;;;;5005844;28;20067;-86
2022/01/23 01:07:30;;;;;;;8.68;1.88;;;5.40;99.90;;;;;;4989558;28;20434;-85
2022/01/23 01:10:00;;;;;;;11.48;2.15;;;5.40;99.90;;;;;;5000758;28;20087;-86
2022/01/23 01:12:34;;;;;;;8.23;2.30;;;5.40;99.90;;;;;;5004361;28;20491;-85
2022/01/23 01:31:27;;;;;;;11.40;3.78;;;5.30;99.90;;;;;;5007991;28;20894;-86
2022/01/23 01:38:46;;;;;;;6.30;2.10;;;5.30;99.90;;;;;;5005839;28;20080;-86
2022/01/23 01:41:12;;;;;;;7.65;2.15;;;5.30;99.90;;;;;;5009485;28;20395;-86
2022/01/23 01:43:37;;;;;;;6.10;1.42;;;5.30;99.90;;;;;;4994931;28;20475;-86
2022/01/23 01:46:03;;;;;;;6.47;1.90;;;5.30;99.90;;;;;;4992362;28;20076;-86
2022/01/23 01:48:29;;;;;;;7.32;1.90;;;5.40;99.90;;;;;;5006467;28;20053;-86
2022/01/23 01:50:56;;;;;;;4.63;1.90;;;5.30;99.90;;;;;;4987863;28;20033;-86
2022/01/23 01:53:22;;;;;;;3.40;1.48;;;5.30;99.90;;;;;;5007327;28;20402;-87
2022/01/23 01:55:53;;;;;;;5.72;2.00;;;5.30;99.90;;;;;;5006078;28;20119;-86
2022/01/23 02:01:11;;;;;;;5.43;1.42;;;5.30;99.90;;;;;;5005089;28;20128;-86
2022/01/23 02:09:11;;;;;;;3.65;1.35;;;5.30;99.90;;;;;;5007784;28;20073;-85
2022/01/23 02:52:08;;;;;;;7.18;2.47;;;5.30;99.90;;;;;;5011092;28;20037;-85
2022/01/23 02:54:55;;;;;;;7.43;1.70;;;5.20;99.90;;;;;;4992923;28;20049;-85
2022/01/23 02:57:53;;;;;;;4.28;1.20;;;5.20;99.90;;;;;;4992940;28;20144;-85
2022/01/23 03:00:20;;;;;;;4.05;1.58;;;5.20;99.90;;;;;;5008861;28;20095;-85
2022/01/23 03:02:50;;;;;;;4.85;1.70;;;5.20;99.90;;;;;;4991623;28;20125;-85
2022/01/23 03:06:09;;;;;;;3.97;1.40;;;5.20;99.90;;;;;;5006432;28;20042;-84
2022/01/23 03:10:44;;;;;;;6.15;1.80;;;5.20;99.90;;;;;;5005775;28;20038;-84
2022/01/23 03:24:21;;;;;;;4.40;1.20;;;5.20;99.90;;;;;;4999671;28;20060;-86
2022/01/23 03:30:37;;;;;;;3.90;0.90;;;5.20;99.90;;;;;;5025776;28;20053;-86
2022/01/23 03:33:07;;;;;;;3.10;1.13;;;5.20;99.90;;;;;;4992858;28;20041;-86
2022/01/23 03:35:16;;;;;;;6.53;1.65;;;5.20;99.90;;;;;;5000784;28;20045;-85
2022/01/23 03:37:41;;;;;;;4.32;1.10;;;5.20;99.90;;;;;;5007398;28;20443;-86
2022/01/23 03:40:09;;;;;;;4.35;1.17;;;5.20;99.90;;;;;;4988652;28;20149;-86
2022/01/23 03:42:37;;;;;;;4.25;1.27;;;5.30;99.90;;;;;;4993452;28;20053;-86
2022/01/23 03:47:40;;;;;;;3.08;0.98;;;5.20;99.90;;;;;;5004445;28;20093;-86
2022/01/23 03:50:09;;;;;;;4.18;1.10;;;5.20;99.90;;;;;;5008949;28;20042;-85
2022/01/23 03:52:35;;;;;;;2.53;0.90;;;5.20;99.90;;;;;;5007942;28;20048;-86
2022/01/23 03:55:04;;;;;;;4.32;1.13;;;5.20;99.90;;;;;;5007809;28;20058;-86
2022/01/23 03:57:30;;;;;;;5.97;1.20;;;5.20;99.90;;;;;;5009663;28;20056;-86
2022/01/23 03:59:55;;;;;;;3.80;1.08;;;5.20;99.90;;;;;;4991525;28;20109;-86
2022/01/23 04:02:21;;;;;;;3.28;0.95;;;5.20;99.90;;;;;;5013486;28;20041;-86
2022/01/23 04:04:47;;;;;;;3.45;1.00;;;5.20;99.90;;;;;;4989234;28;20180;-86
2022/01/23 04:07:26;;;;;;;2.83;0.95;;;5.20;99.90;;;;;;5005618;28;20048;-86
2022/01/23 04:09:52;;;;;;;3.70;1.25;;;5.20;99.90;;;;;;4995481;28;20451;-86
2022/01/23 04:14:56;;;;;;;4.55;1.00;;;5.20;99.90;;;;;;5005297;28;20657;-86
2022/01/23 04:33:47;;;;;;;2.97;1.00;;;5.10;99.90;;;;;;5003857;28;20041;-86
2022/01/23 04:48:13;;;;;;;5.60;1.80;;;5.10;99.90;;;;;;5006565;28;20053;-85
2022/01/23 05:01:12;;;;;;;5.82;1.90;;;5.00;99.90;;;;;;5007482;28;20112;-85
2022/01/23 05:04:07;;;;;;;8.88;3.88;;;5.00;99.90;;;;;;4990404;28;20045;-86
2022/01/23 05:06:40;;;;;;;6.32;3.05;;;5.00;99.90;;;;;;5006382;28;20490;-86
2022/01/23 05:09:07;;;;;;;6.57;2.80;;;5.00;99.90;;;;;;5023344;28;20059;-86
2022/01/23 05:11:33;;;;;;;9.73;3.08;;;5.00;99.90;;;;;;5024205;28;20061;-86
2022/01/23 05:14:02;;;;;;;7.72;3.65;;;5.00;99.90;;;;;;4990237;28;20033;-86
2022/01/23 05:16:30;;;;;;;11.63;3.72;;;5.10;99.90;;;;;;5019597;28;20404;-87
2022/01/23 05:18:56;;;;;;;10.90;4.50;;;5.00;99.90;;;;;;5023852;28;20131;-86
2022/01/23 05:23:49;;;;;;;10.68;3.45;;;5.00;99.90;;;;;;5002872;28;20065;-86
2022/01/23 05:26:15;;;;;;;8.98;4.22;;;5.00;99.90;;;;;;4990736;28;20033;-85
2022/01/23 05:28:41;;;;;;;8.95;4.57;;;5.00;99.90;;;;;;4989223;28;20441;-85
2022/01/23 05:31:06;;;;;;;9.50;3.88;;;5.00;99.90;;;;;;5009917;28;20040;-86
2022/01/23 05:33:32;;;;;;;10.15;4.90;;;5.00;99.90;;;;;;5001700;28;20036;-86
2022/01/23 05:35:58;;;;;;;9.82;4.40;;;5.00;99.90;;;;;;5005125;28;20041;-86
2022/01/23 05:38:23;;;;;;;10.35;4.35;;;5.00;99.90;;;;;;5008545;28;20037;-86
2022/01/23 05:40:56;;;;;;;12.95;5.05;;;5.00;99.90;;;;;;4982311;28;20039;-86
2022/01/23 05:43:22;;;;;;;13.25;4.40;;;5.00;99.90;;;;;;4989322;28;20041;-86
2022/01/23 05:45:48;;;;;;;10.40;4.70;;;5.00;99.90;;;;;;4985066;28;20065;-86
2022/01/23 05:48:13;;;;;;;12.02;4.38;;;5.00;99.90;;;;;;4995893;28;20038;-86
2022/01/23 05:50:39;;;;;;;12.80;4.60;;;5.00;99.90;;;;;;4992921;28;20038;-86
2022/01/23 05:53:05;;;;;;;10.55;4.30;;;4.90;99.90;;;;;;5007877;28;20034;-86
2022/01/23 05:55:30;;;;;;;12.05;4.72;;;5.00;99.90;;;;;;4994492;28;20049;-86
2022/01/23 05:57:56;;;;;;;20.15;6.00;;;4.90;99.90;;;;;;4990490;28;20046;-86
2022/01/23 06:00:24;;;;;;;16.20;6.60;;;4.90;99.90;;;;;;5012860;28;20448;-86
2022/01/23 06:02:51;;;;;;;12.55;5.30;;;4.90;99.90;;;;;;5005768;28;20129;-86
2022/01/23 06:05:17;;;;;;;22.08;5.75;;;4.90;99.90;;;;;;4996101;28;20116;-84
2022/01/23 06:07:42;;;;;;;14.10;5.97;;;4.90;99.90;;;;;;4989784;28;20183;-83
2022/01/23 06:10:18;;;;;;;32.88;7.55;;;4.90;99.90;;;;;;5009466;28;20064;-85
2022/01/23 06:12:44;;;;;;;34.30;8.07;;;4.90;99.90;;;;;;4996071;28;20033;-86
2022/01/23 06:15:10;;;;;;;18.45;5.60;;;4.90;99.90;;;;;;4992097;28;20123;-86
2022/01/23 06:17:35;;;;;;;85.35;9.75;;;4.90;99.90;;;;;;5012061;28;20048;-86
2022/01/23 06:20:01;;;;;;;27.60;7.03;;;4.90;99.90;;;;;;5010710;28;20053;-86
2022/01/23 06:22:27;;;;;;;65.80;9.07;;;4.90;99.90;;;;;;5012378;28;20049;-85
2022/01/23 06:24:53;;;;;;;48.70;8.90;;;4.80;99.90;;;;;;5007081;28;20056;-86
2022/01/23 06:27:19;;;;;;;66.88;10.77;;;4.80;99.90;;;;;;4991705;28;20060;-86
2022/01/23 06:29:45;;;;;;;123.05;12.35;;;4.80;99.90;;;;;;5015601;28;20043;-86
2022/01/23 06:32:11;;;;;;;146.02;13.73;;;4.80;99.90;;;;;;5027260;28;20038;-85
2022/01/23 06:34:37;;;;;;;119.10;12.32;;;4.80;99.90;;;;;;5010795;28;20177;-86
2022/01/23 06:37:03;;;;;;;93.30;9.82;;;4.80;99.90;;;;;;5006526;28;20038;-86
2022/01/23 06:39:29;;;;;;;130.32;13.45;;;4.80;99.90;;;;;;5009094;28;20041;-86
2022/01/23 06:41:55;;;;;;;171.57;16.17;;;4.70;99.90;;;;;;4991772;28;20060;-86
2022/01/23 06:44:22;;;;;;;84.57;12.13;;;4.80;99.90;;;;;;4985533;28;20076;-86
2022/01/23 06:46:48;;;;;;;56.65;8.25;;;4.70;99.90;;;;;;4990944;28;20543;-86
2022/01/23 06:49:14;;;;;;;139.73;15.52;;;4.80;99.90;;;;;;5010288;28;20065;-86
2022/01/23 06:51:42;;;;;;;78.75;7.97;;;4.70;99.90;;;;;;5008538;28;20037;-86
2022/01/23 06:54:08;;;;;;;139.10;15.93;;;4.80;99.90;;;;;;4989140;28;20449;-86
2022/01/23 06:56:34;;;;;;;156.20;17.10;;;4.80;99.90;;;;;;5013871;28;20279;-85
2022/01/23 06:59:00;;;;;;;157.05;12.68;;;4.80;99.90;;;;;;5010857;28;20041;-86
2022/01/23 07:01:25;;;;;;;155.52;16.45;;;4.80;99.90;;;;;;5010488;28;20037;-86
2022/01/23 07:03:51;;;;;;;180.07;17.40;;;4.80;99.90;;;;;;4995072;28;20237;-86
2022/01/23 07:06:17;;;;;;;166.90;15.98;;;4.80;99.90;;;;;;5011296;28;20100;-86
2022/01/23 07:08:43;;;;;;;205.55;14.65;;;4.80;99.90;;;;;;4988258;28;20038;-86
2022/01/23 07:11:09;;;;;;;72.82;8.48;;;4.80;99.90;;;;;;5010223;28;20403;-86
2022/01/23 07:13:34;;;;;;;135.93;13.93;;;4.80;99.90;;;;;;5010263;28;20436;-86
2022/01/23 07:16:02;;;;;;;117.47;11.93;;;4.80;99.90;;;;;;5010604;28;20439;-86
2022/01/23 07:18:28;;;;;;;119.32;13.38;;;4.80;99.90;;;;;;5010838;28;20046;-86
2022/01/23 07:20:54;;;;;;;71.05;10.27;;;4.80;99.90;;;;;;5009056;28;20040;-86
2022/01/23 07:23:22;;;;;;;166.32;15.35;;;4.80;99.90;;;;;;4996138;28;20041;-86
2022/01/23 07:25:49;;;;;;;121.95;13.65;;;4.90;99.90;;;;;;5007779;28;20436;-86
2022/01/23 07:28:17;;;;;;;111.82;15.15;;;4.80;99.90;;;;;;4994623;28;20045;-86
2022/01/23 07:30:51;;;;;;;73.18;11.45;;;4.90;99.90;;;;;;4996824;28;20042;-86
2022/01/23 07:33:17;;;;;;;49.10;8.00;;;4.90;99.90;;;;;;5007421;28;20175;-85
2022/01/23 07:35:43;;;;;;;79.07;12.25;;;4.90;99.90;;;;;;5012962;28;20461;-86
2022/01/23 07:38:10;;;;;;;46.35;8.10;;;4.90;99.90;;;;;;5008564;28;20132;-86
2022/01/23 07:40:36;;;;;;;79.07;9.98;;;4.90;99.90;;;;;;5009028;28;20171;-85
2022/01/23 07:43:02;;;;;;;54.42;8.13;;;4.90;99.90;;;;;;5011582;28;20514;-85
2022/01/23 07:45:28;;;;;;;63.40;10.27;;;4.90;99.90;;;;;;4994280;28;20029;-86
2022/01/23 07:47:53;;;;;;;37.53;6.75;;;4.90;99.90;;;;;;5026679;28;20463;-86
2022/01/23 07:50:19;;;;;;;83.20;11.00;;;4.90;99.90;;;;;;5012931;28;20406;-86
2022/01/23 07:52:45;;;;;;;82.47;11.85;;;5.00;99.90;;;;;;5008510;28;20041;-86
2022/01/23 07:55:14;;;;;;;93.50;8.65;;;5.00;99.90;;;;;;5010630;28;20140;-86
2022/01/23 07:57:42;;;;;;;90.07;11.65;;;5.00;99.90;;;;;;5019585;28;20048;-86
2022/01/23 08:00:10;;;;;;;156.70;15.85;;;5.00;99.90;;;;;;4992005;28;20041;-85
2022/01/23 08:02:36;;;;;;;48.13;7.00;;;5.00;99.90;;;;;;5007824;28;20038;-86
2022/01/23 08:05:02;;;;;;;83.20;8.10;;;5.00;99.90;;;;;;5010281;28;20428;-86
2022/01/23 08:09:56;;;;;;;56.63;8.48;;;5.00;99.90;;;;;;5005986;28;20069;-86
2022/01/23 08:12:23;;;;;;;75.63;9.45;;;5.00;99.90;;;;;;5010725;28;20495;-86
2022/01/23 08:14:49;;;;;;;100.78;14.55;;;5.00;99.90;;;;;;5006166;28;20037;-86
2022/01/23 08:17:15;;;;;;;73.97;8.70;;;5.10;99.90;;;;;;4993820;28;20499;-86
2022/01/23 08:19:40;;;;;;;61.53;10.05;;;5.10;99.90;;;;;;5008009;28;20039;-86
2022/01/23 08:22:06;;;;;;;59.30;9.95;;;5.10;99.90;;;;;;5010024;28;20111;-86
2022/01/23 08:24:32;;;;;;;81.30;8.88;;;5.10;99.90;;;;;;5003903;28;20040;-86
2022/01/23 08:26:57;;;;;;;39.55;6.90;;;5.20;99.90;;;;;;5006471;28;20045;-86
2022/01/23 08:29:23;;;;;;;50.92;8.77;;;5.20;99.90;;;;;;5010748;28;20056;-86
2022/01/23 08:31:49;;;;;;;52.95;8.27;;;5.20;99.90;;;;;;4992877;28;20475;-86
2022/01/23 08:34:15;;;;;;;68.28;7.22;;;5.20;99.90;;;;;;5006180;28;20480;-85
2022/01/23 08:36:40;;;;;;;23.73;5.53;;;5.30;99.90;;;;;;5009355;28;20041;-86
2022/01/23 08:39:07;;;;;;;79.63;9.77;;;5.30;99.90;;;;;;4991229;28;20045;-86
2022/01/23 08:45:24;;;;;;;;;;;5.40;99.90;;;;;;4950790;28;20082;-86
2022/01/23 08:47:53;;;;;;;37.53;7.32;;;5.40;99.90;;;;;;4983058;28;20437;-86
2022/01/23 08:50:18;;;;;;;15.23;4.53;;;5.40;99.90;;;;;;4991302;28;20029;-86
2022/01/23 08:52:44;;;;;;;27.08;7.57;;;5.40;99.90;;;;;;5002228;28;20033;-86
2022/01/23 08:55:10;;;;;;;17.35;6.95;;;5.40;99.90;;;;;;5003612;28;20103;-86
2022/01/23 08:57:36;;;;;;;17.27;7.05;;;5.50;99.90;;;;;;5031337;28;20142;-86
2022/01/23 09:00:03;;;;;;;25.35;8.73;;;5.50;99.90;;;;;;4997777;28;20088;-86
2022/01/23 09:02:29;;;;;;;20.65;8.07;;;5.50;99.90;;;;;;5008338;28;20434;-86
2022/01/23 09:04:56;;;;;;;15.45;6.60;;;5.50;99.90;;;;;;5004422;28;20045;-86
2022/01/23 09:07:22;;;;;;;19.27;8.27;;;5.50;99.90;;;;;;4993880;28;20216;-86
2022/01/23 09:09:47;;;;;;;16.40;6.45;;;5.60;99.90;;;;;;4990908;28;20034;-86
2022/01/23 09:12:43;;;;;;;16.70;7.35;;;5.60;99.90;;;;;;5007857;28;20051;-86
2022/01/23 09:15:10;;;;;;;11.32;4.80;;;5.60;99.90;;;;;;5006002;28;20037;-86
2022/01/23 09:17:35;;;;;;;11.98;4.90;;;5.70;99.90;;;;;;4990106;28;20510;-86
2022/01/23 09:20:01;;;;;;;12.75;4.75;;;5.70;99.90;;;;;;5006573;28;20045;-86
2022/01/23 09:22:29;;;;;;;12.50;5.03;;;5.70;99.90;;;;;;4986032;28;20029;-86
2022/01/23 09:25:00;;;;;;;12.32;4.93;;;5.80;99.90;;;;;;5002270;28;20044;-86
2022/01/23 09:27:26;;;;;;;12.10;4.93;;;5.80;99.90;;;;;;4991744;28;20042;-86
2022/01/23 09:29:54;;;;;;;14.30;5.30;;;5.80;99.90;;;;;;5004558;28;20126;-86
2022/01/23 09:32:22;;;;;;;10.27;4.47;;;5.90;99.90;;;;;;4986607;28;20038;-86
2022/01/23 09:34:49;;;;;;;9.27;4.05;;;5.90;99.90;;;;;;5007391;28;20598;-86
2022/01/23 09:37:17;;;;;;;10.88;4.68;;;5.90;99.90;;;;;;4988908;28;20064;-86
2022/01/23 09:39:46;;;;;;;9.73;3.83;;;6.00;99.90;;;;;;5011242;28;20040;-86
2022/01/23 09:42:23;;;;;;;11.73;4.47;;;6.00;99.90;;;;;;4987993;28;20130;-86
2022/01/23 09:45:04;;;;;;;12.50;4.47;;;6.00;99.90;;;;;;4988348;28;20046;-86
2022/01/23 09:47:31;;;;;;;8.13;3.72;;;6.00;99.90;;;;;;4988676;28;20061;-86
2022/01/23 09:50:00;;;;;;;6.85;3.38;;;6.00;99.90;;;;;;5004937;28;20029;-86
2022/01/23 09:52:32;;;;;;;8.27;3.72;;;6.00;99.90;;;;;;5006172;28;20163;-86
2022/01/23 09:55:06;;;;;;;7.28;3.60;;;6.10;99.90;;;;;;4988340;28;20046;-86
2022/01/23 09:57:33;;;;;;;8.60;3.78;;;6.10;99.90;;;;;;4992816;28;20045;-86
2022/01/23 10:00:00;;;;;;;11.10;4.30;;;6.10;99.90;;;;;;4999608;28;20094;-86
2022/01/23 10:02:28;;;;;;;8.65;4.00;;;6.10;99.90;;;;;;4991637;28;20102;-86
2022/01/23 10:04:55;;;;;;;7.93;3.88;;;6.20;99.90;;;;;;5000521;28;20274;-86
2022/01/23 10:07:21;;;;;;;9.10;3.30;;;6.20;99.90;;;;;;5006437;28;20045;-86
2022/01/23 10:09:56;;;;;;;6.72;3.05;;;6.20;99.90;;;;;;4990454;28;20087;-85
2022/01/23 10:12:26;;;;;;;7.45;2.97;;;6.20;99.90;;;;;;4990480;28;20583;-86
2022/01/23 10:14:53;;;;;;;7.07;3.00;;;6.20;99.90;;;;;;4986468;28;20041;-86
2022/01/23 10:17:19;;;;;;;8.95;3.80;;;6.30;99.90;;;;;;4990545;28;20491;-86
2022/01/23 10:19:45;;;;;;;6.40;3.30;;;6.30;99.90;;;;;;4999766;28;20048;-86
2022/01/23 10:22:12;;;;;;;7.75;3.58;;;6.40;99.90;;;;;;4989559;28;20093;-86
2022/01/23 10:24:38;;;;;;;6.00;3.33;;;6.40;99.90;;;;;;4986935;28;20049;-86
2022/01/23 10:27:04;;;;;;;6.80;3.30;;;6.40;99.90;;;;;;5023051;28;20497;-85
2022/01/23 10:29:34;;;;;;;7.10;3.08;;;6.40;99.90;;;;;;5009952;28;20467;-85
2022/01/23 10:32:08;;;;;;;5.22;2.58;;;6.50;99.90;;;;;;4991492;28;20029;-85
2022/01/23 10:34:55;;;;;;;5.93;2.53;;;6.50;99.90;;;;;;5012793;28;20037;-86
2022/01/23 10:37:30;;;;;;;4.95;2.45;;;6.60;99.90;;;;;;5004699;28;20045;-83
2022/01/23 10:39:58;;;;;;;5.05;2.47;;;6.60;99.90;;;;;;4991126;28;20057;-83
2022/01/23 10:47:59;;;;;;;4.55;1.92;;;6.70;99.90;;;;;;5008410;28;20152;-85
2022/01/23 10:50:26;;;;;;;4.28;1.77;;;6.70;99.90;;;;;;5005020;28;20121;-86
2022/01/23 10:52:53;;;;;;;4.47;1.92;;;6.70;99.90;;;;;;4993073;28;20037;-86
2022/01/23 10:55:34;;;;;;;3.13;1.48;;;6.80;99.90;;;;;;5000988;28;20053;-86
2022/01/23 10:58:03;;;;;;;3.45;1.63;;;6.80;99.90;;;;;;5007674;28;20176;-86
2022/01/23 11:00:38;;;;;;;4.65;1.58;;;6.80;99.90;;;;;;5008985;28;20454;-86
2022/01/23 11:03:21;;;;;;;3.17;1.35;;;6.80;99.90;;;;;;5012526;28;20124;-86
2022/01/23 11:05:48;;;;;;;4.13;1.73;;;6.80;99.90;;;;;;5006980;28;20491;-86
2022/01/23 11:08:31;;;;;;;3.30;1.30;;;6.80;99.90;;;;;;4983823;28;20129;-85
2022/01/23 11:11:06;;;;;;;3.20;1.33;;;6.80;99.90;;;;;;5009109;28;20059;-85
2022/01/23 11:19:30;;;;;;;5.35;2.00;;;6.90;99.90;;;;;;5010716;28;20100;-86
2022/01/23 11:21:59;;;;;;;4.63;1.60;;;6.90;99.90;;;;;;5006252;28;20080;-84
2022/01/23 11:24:35;;;;;;;3.20;1.30;;;6.90;99.90;;;;;;5010328;28;20072;-84
2022/01/23 11:27:03;;;;;;;3.92;1.67;;;6.90;99.90;;;;;;4988441;28;20081;-84
2022/01/23 11:29:28;;;;;;;3.25;1.48;;;6.90;99.90;;;;;;5008113;28;20119;-84
2022/01/23 11:31:54;;;;;;;4.13;1.52;;;6.90;99.90;;;;;;4990329;28;20492;-86
2022/01/23 11:34:22;;;;;;;4.35;1.30;;;7.00;99.90;;;;;;4988972;28;20045;-85
2022/01/23 11:36:48;;;;;;;4.82;1.58;;;7.00;99.90;;;;;;4993604;28;20384;-85
2022/01/23 11:39:36;;;;;;;3.75;1.63;;;7.10;99.90;;;;;;4992892;28;20136;-85
2022/01/23 11:59:23;;;;;;;1.58;0.63;;;7.20;99.90;;;;;;5005650;28;20160;-86
2022/01/23 12:05:16;;;;;;;4.13;1.17;;;7.30;99.90;;;;;;4988121;28;20021;-86
2022/01/23 12:08:05;;;;;;;3.97;1.13;;;7.30;99.90;;;;;;4990749;28;20048;-86
2022/01/23 12:10:48;;;;;;;2.88;0.85;;;7.30;99.90;;;;;;5020740;28;20407;-86
2022/01/23 12:18:49;;;;;;;1.55;0.30;;;7.30;99.90;;;;;;5002169;28;20160;-86
2022/01/23 12:21:29;;;;;;;1.63;0.25;;;7.30;99.90;;;;;;4994129;28;20558;-85
2022/01/23 12:24:00;;;;;;;0.68;0.30;;;7.30;99.90;;;;;;5008114;28;20574;-86
2022/01/23 12:26:25;;;;;;;1.05;0.30;;;7.30;99.90;;;;;;4995341;28;20041;-85
2022/01/23 12:28:51;;;;;;;1.70;0.20;;;7.30;99.90;;;;;;5010549;28;20047;-85
2022/01/23 12:31:17;;;;;;;0.98;0.30;;;7.30;99.90;;;;;;4990577;28;20092;-85
2022/01/23 12:33:42;;;;;;;0.75;0.32;;;7.30;99.90;;;;;;4988288;28;20044;-86
2022/01/23 12:36:14;;;;;;;1.50;0.30;;;7.30;99.90;;;;;;4989827;28;20068;-84
2022/01/23 12:38:49;;;;;;;1.83;0.47;;;7.30;99.90;;;;;;4991920;28;20580;-84
2022/01/23 12:41:22;;;;;;;1.10;0.30;;;7.30;99.90;;;;;;4986492;28;20056;-84
2022/01/23 12:43:52;;;;;;;1.38;0.30;;;7.30;99.90;;;;;;5009349;28;20391;-84
2022/01/23 12:46:52;;;;;;;0.57;0.25;;;7.30;99.90;;;;;;5002670;28;20049;-84
2022/01/23 12:49:45;;;;;;;1.00;0.30;;;7.30;99.90;;;;;;5004152;28;20034;-84
2022/01/23 12:52:11;;;;;;;1.63;0.40;;;7.30;99.90;;;;;;5004447;28;20041;-84
2022/01/23 12:54:46;;;;;;;0.77;0.32;;;7.30;99.90;;;;;;5006373;28;20049;-84
2022/01/23 12:57:18;;;;;;;2.08;0.40;;;7.30;99.90;;;;;;5009987;28;20168;-83
2022/01/23 12:59:56;;;;;;;2.53;0.50;;;7.30;99.90;;;;;;5024661;28;20495;-83
2022/01/23 13:02:25;;;;;;;1.30;0.40;;;7.30;99.90;;;;;;5010183;28;20037;-83
2022/01/23 13:04:53;;;;;;;1.33;0.45;;;7.30;99.90;;;;;;4990353;28;20041;-84
2022/01/23 13:08:19;;;;;;;1.08;0.50;;;7.30;99.90;;;;;;4993314;28;20648;-84
2022/01/23 13:10:36;;;;;;;1.08;0.47;;;7.40;99.90;;;;;;4999704;28;20085;-84
2022/01/23 13:13:36;;;;;;;1.10;0.60;;;7.40;99.90;;;;;;4992840;28;20580;-84
2022/01/23 13:32:00;;;;;;;1.95;0.60;;;7.40;99.90;;;;;;5003782;28;19920;-84
2022/01/23 13:34:38;;;;;;;2.58;0.70;;;7.40;99.90;;;;;;4991331;28;20040;-84
2022/01/23 13:37:13;;;;;;;2.45;0.60;;;7.40;99.90;;;;;;5006151;28;20053;-84
2022/01/23 13:39:52;;;;;;;2.55;0.50;;;7.40;99.90;;;;;;4991638;28;20033;-84
2022/01/23 13:49:03;;;;;;;2.90;0.45;;;7.50;99.90;;;;;;5008750;28;20045;-84
2022/01/23 13:51:17;;;;;;;2.00;0.50;;;7.50;99.90;;;;;;4997084;28;20067;-84
2022/01/23 13:59:23;;;;;;;2.75;0.82;;;7.40;99.90;;;;;;4996412;28;20484;-84
2022/01/23 14:02:06;;;;;;;1.98;0.50;;;7.40;99.90;;;;;;4976539;28;20120;-84
2022/01/23 14:04:45;;;;;;;1.88;0.75;;;7.40;99.90;;;;;;4980337;28;20049;-84
2022/01/23 14:07:11;;;;;;;2.20;0.70;;;7.40;99.90;;;;;;5005883;28;20093;-84
2022/01/23 14:09:45;;;;;;;1.67;0.70;;;7.40;99.90;;;;;;4990495;28;20475;-84
2022/01/23 14:12:13;;;;;;;1.25;0.50;;;7.40;99.90;;;;;;5007582;28;20114;-84
2022/01/23 14:15:05;;;;;;;1.50;0.77;;;7.40;99.90;;;;;;4993064;28;20173;-84
2022/01/23 14:17:36;;;;;;;3.30;0.90;;;7.40;99.90;;;;;;5008648;28;20038;-84
2022/01/23 14:20:16;;;;;;;2.35;0.77;;;7.30;99.90;;;;;;4991532;28;20141;-84
2022/01/23 14:22:47;;;;;;;2.65;0.80;;;7.40;99.90;;;;;;5004009;28;20448;-84
2022/01/23 14:25:17;;;;;;;3.83;1.27;;;7.30;99.90;;;;;;5005551;28;20029;-84
2022/01/23 14:28:06;;;;;;;2.05;0.85;;;7.30;99.90;;;;;;5004765;28;20033;-84
2022/01/23 14:30:34;;;;;;;1.88;0.90;;;7.30;99.90;;;;;;4990911;28;20480;-84
2022/01/23 14:33:14;;;;;;;1.55;0.57;;;7.30;99.90;;;;;;5004135;28;20074;-84
2022/01/23 14:35:40;;;;;;;1.60;0.57;;;7.30;99.90;;;;;;4988162;28;20144;-84
2022/01/23 14:38:15;;;;;;;1.55;0.60;;;7.30;99.90;;;;;;4989460;28;20117;-84
2022/01/23 14:41:09;;;;;;;1.98;1.10;;;7.30;99.90;;;;;;5004514;28;20033;-84
2022/01/23 14:43:40;;;;;;;1.60;0.80;;;7.20;99.90;;;;;;5014189;28;20073;-84
2022/01/23 14:46:11;;;;;;;2.88;0.70;;;7.20;99.90;;;;;;4988286;28;20034;-84
2022/01/23 14:48:44;;;;;;;2.20;0.60;;;7.20;99.90;;;;;;5005352;28;20041;-84
2022/01/23 14:51:11;;;;;;;1.60;0.80;;;7.20;99.90;;;;;;4991215;28;20441;-83
2022/01/23 14:53:38;;;;;;;1.50;0.63;;;7.10;99.90;;;;;;4994269;28;20385;-83
2022/01/23 14:56:07;;;;;;;1.45;0.73;;;7.10;99.90;;;;;;5006623;28;20082;-84
2022/01/23 14:58:34;;;;;;;2.65;1.42;;;7.10;99.90;;;;;;4981948;28;20045;-84
2022/01/23 15:01:02;;;;;;;1.73;0.80;;;7.10;99.90;;;;;;4970950;28;20064;-84
2022/01/23 15:03:29;;;;;;;3.35;0.88;;;7.10;99.90;;;;;;4985778;28;20046;-84
2022/01/23 15:05:55;;;;;;;1.98;0.77;;;7.10;99.90;;;;;;4983268;28;20042;-84
2022/01/23 15:08:24;;;;;;;2.15;0.73;;;7.10;99.90;;;;;;4983689;28;20045;-84
2022/01/23 15:10:55;;;;;;;3.00;0.80;;;7.10;99.90;;;;;;5001621;28;20046;-84
2022/01/23 15:13:22;;;;;;;1.58;0.70;;;7.00;99.90;;;;;;4981574;28;20485;-84
2022/01/23 15:15:50;;;;;;;2.72;0.90;;;7.00;99.90;;;;;;4981025;28;20120;-84
2022/01/23 15:18:16;;;;;;;2.33;1.00;;;7.00;99.90;;;;;;4990718;28;20053;-84
2022/01/23 15:20:41;;;;;;;1.95;0.60;;;7.00;99.90;;;;;;4986509;28;20049;-84
2022/01/23 15:23:08;;;;;;;2.25;0.80;;;7.00;99.90;;;;;;4966373;28;20043;-84
2022/01/23 15:25:33;;;;;;;1.88;0.90;;;7.00;99.90;;;;;;4983629;28;20588;-84
2022/01/23 15:27:59;;;;;;;2.25;1.00;;;7.00;99.90;;;;;;4980737;28;20050;-84
2022/01/23 15:30:26;;;;;;;2.95;0.90;;;7.00;99.90;;;;;;4984446;28;20132;-84
2022/01/23 15:32:53;;;;;;;3.70;0.90;;;6.90;99.90;;;;;;4984060;28;20126;-84
2022/01/23 15:35:20;;;;;;;2.45;0.90;;;6.90;99.90;;;;;;4984436;28;20117;-84
2022/01/23 15:37:45;;;;;;;2.03;0.80;;;6.90;99.90;;;;;;4979856;28;20054;-84
2022/01/23 15:40:13;;;;;;;3.08;1.35;;;6.90;99.90;;;;;;4987649;28;20226;-83
2022/01/23 15:42:40;;;;;;;2.40;1.33;;;6.90;99.90;;;;;;4978928;28;20098;-84
2022/01/23 15:45:07;;;;;;;3.90;1.90;;;6.90;99.90;;;;;;4984349;28;20487;-84
2022/01/23 15:47:33;;;;;;;4.28;2.10;;;6.80;99.90;;;;;;4997675;28;20046;-84
2022/01/23 15:49:59;;;;;;;2.97;1.40;;;6.80;99.90;;;;;;4985152;28;20552;-84
2022/01/23 15:52:25;;;;;;;2.35;0.98;;;6.90;99.90;;;;;;4977264;28;20098;-84
2022/01/23 15:54:51;;;;;;;2.35;0.90;;;6.80;99.90;;;;;;4985126;28;20130;-84
2022/01/23 15:57:17;;;;;;;2.20;1.30;;;6.80;99.90;;;;;;4965582;28;20064;-84
2022/01/23 15:59:43;;;;;;;4.05;1.10;;;6.80;99.90;;;;;;4984659;28;20042;-84
2022/01/23 16:02:08;;;;;;;2.85;1.00;;;6.80;99.90;;;;;;4985399;28;20073;-84
2022/01/23 16:04:37;;;;;;;3.03;1.13;;;6.80;99.90;;;;;;4986463;28;20246;-84
2022/01/23 16:07:07;;;;;;;5.15;1.27;;;6.80;99.90;;;;;;4982366;28;20111;-84
2022/01/23 16:09:34;;;;;;;2.38;1.13;;;6.80;99.90;;;;;;4979272;28;20419;-84
2022/01/23 16:12:00;;;;;;;3.10;1.33;;;6.70;99.90;;;;;;4987065;28;20094;-84
2022/01/23 16:14:26;;;;;;;3.13;1.60;;;6.70;99.90;;;;;;4979781;28;20412;-85
2022/01/23 16:16:52;;;;;;;3.20;1.33;;;6.70;99.90;;;;;;4983882;28;20053;-85
2022/01/23 16:19:18;;;;;;;3.08;1.30;;;6.70;99.90;;;;;;4971475;28;20459;-85
2022/01/23 16:21:44;;;;;;;5.10;1.20;;;6.70;99.90;;;;;;4970595;28;20125;-85
2022/01/23 16:24:10;;;;;;;2.95;1.23;;;6.70;99.90;;;;;;4985141;28;20089;-85
2022/01/23 16:26:36;;;;;;;2.80;1.02;;;6.70;99.90;;;;;;4985256;28;20174;-85
2022/01/23 16:29:02;;;;;;;2.85;1.20;;;6.70;99.90;;;;;;4986640;28;20105;-85
2022/01/23 16:31:28;;;;;;;2.40;1.20;;;6.70;99.90;;;;;;4985206;28;20104;-85
2022/01/23 16:33:54;;;;;;;2.47;1.27;;;6.60;99.90;;;;;;4981421;28;20038;-85
2022/01/23 16:36:19;;;;;;;3.15;1.30;;;6.60;99.90;;;;;;4968354;28;20043;-85
2022/01/23 16:38:45;;;;;;;3.10;1.38;;;6.60;99.90;;;;;;4966334;28;20041;-85